CheckWX is a tool to help pilots better visualize weather data.  It is not intended as a substitute for an official pre-flight weather briefing.

13:42:24 UTC

ETIH METAR
Hohenfels Army Air Field Airport
Germany
Current

46 mins ago

ETIH 201256Z AUTO 21007KT 9999 FEW150 FEW180 30/16 A3000 RMK AO2 SLP138 T03020158 $
Observed
Jul-20 @ 12:56 UTC
Wind
  • 210° at 7 KTS
Visibility
10,000+ meters
Flight Rules
VFR
Cloud Levels
  • Few at 15,000' AGL
  • Few at 18,000' AGL
Temperature
30°C / 86°F
Dewpoint
16°C / 61°F
Heat Index
30°C / 86°F
Humidity
43%
Altimeter
30" Hg
Pressure
1015.92 hPa
Previous

46 mins ago

ETIH 201256Z AUTO 21007KT 9999 FEW150 FEW180 30/16 A3000 RMK AO2 SLP138 T03020158
Observed
Jul-20 @ 12:56 UTC
Wind
  • 210° at 7 KTS
Visibility
10,000+ meters
Flight Rules
VFR
Cloud Levels
  • Few at 15,000' AGL
  • Few at 18,000' AGL
Temperature
30°C / 86°F
Dewpoint
16°C / 61°F
Heat Index
30°C / 86°F
Humidity
43%
Altimeter
30" Hg
Pressure
1015.92 hPa
Previous

2 hours ago

ETIH 201156Z AUTO 23004KT 9999 FEW180 30/16 A3000 RMK AO2 RAB01E11 SLP138 P0000 60000 T02950163 10298 20186 57007 $
Observed
Jul-20 @ 11:56 UTC
Wind
  • 230° at 4 KTS
Visibility
10,000+ meters
Flight Rules
VFR
Cloud Levels
  • Few at 18,000' AGL
Temperature
30°C / 86°F
Dewpoint
16°C / 61°F
Heat Index
30°C / 86°F
Humidity
43%
Altimeter
30" Hg
Pressure
1015.92 hPa
Current Rain
0.01"